createdAt,value
2019-03-29T00:00:40.364Z,7.87
2019-03-29T00:03:46.184Z,8.20
2019-03-29T00:06:51.915Z,8.00
2019-03-29T00:09:57.640Z,9.23
2019-03-29T00:13:03.371Z,11.10
2019-03-29T00:16:09.077Z,10.17
2019-03-29T00:19:14.831Z,9.27
2019-03-29T00:22:20.608Z,9.40
2019-03-29T00:25:26.362Z,8.97
2019-03-29T00:28:32.018Z,11.57
2019-03-29T00:31:37.794Z,11.03
2019-03-29T00:34:43.541Z,11.10
2019-03-29T00:37:53.647Z,13.23
2019-03-29T00:40:58.876Z,10.90
2019-03-29T00:44:04.675Z,10.70
2019-03-29T00:47:10.451Z,10.40
2019-03-29T00:50:16.235Z,9.93
2019-03-29T00:53:21.979Z,10.83
2019-03-29T00:56:27.717Z,11.83
2019-03-29T00:59:33.473Z,12.80
2019-03-29T01:02:39.205Z,12.53
2019-03-29T01:05:45.039Z,9.00
2019-03-29T01:08:50.739Z,11.07
2019-03-29T01:11:56.448Z,9.57
2019-03-29T01:15:02.241Z,11.13
2019-03-29T01:18:08.353Z,10.87
2019-03-29T01:21:14.273Z,8.47
2019-03-29T01:24:19.949Z,14.80
2019-03-29T01:27:25.603Z,8.77
2019-03-29T01:30:31.282Z,10.90
2019-03-29T01:33:37.034Z,10.47
2019-03-29T01:36:42.746Z,12.37
2019-03-29T01:39:48.501Z,13.90
2019-03-29T01:42:54.234Z,11.30
2019-03-29T01:45:59.984Z,12.37
2019-03-29T01:49:05.627Z,11.67
2019-03-29T01:52:11.459Z,16.20
2019-03-29T01:55:17.188Z,11.30
2019-03-29T01:58:22.888Z,12.20
2019-03-29T02:01:29.111Z,14.13
2019-03-29T02:04:34.983Z,12.77
2019-03-29T02:07:40.942Z,17.77
2019-03-29T02:10:46.687Z,14.67
2019-03-29T02:13:52.376Z,14.23
2019-03-29T02:16:58.175Z,14.17
2019-03-29T02:20:03.811Z,13.37
2019-03-29T02:23:09.569Z,15.57
2019-03-29T02:26:15.240Z,13.60
2019-03-29T02:29:21.022Z,15.93
2019-03-29T02:32:26.786Z,11.83
2019-03-29T02:35:32.534Z,12.73
2019-03-29T02:38:55.079Z,14.27
2019-03-29T02:41:49.057Z,15.83
2019-03-29T02:44:54.767Z,12.47
2019-03-29T02:48:00.610Z,12.57
2019-03-29T02:51:07.499Z,14.03
2019-03-29T02:54:13.246Z,11.60
2019-03-29T02:57:18.951Z,11.10
2019-03-29T03:00:25.719Z,12.60
2019-03-29T03:03:31.419Z,11.20
2019-03-29T03:06:38.207Z,12.63
2019-03-29T03:09:43.925Z,14.47
2019-03-29T03:12:49.632Z,12.63
2019-03-29T03:15:55.360Z,11.77
2019-03-29T03:19:01.042Z,12.03
2019-03-29T03:22:06.723Z,13.63
2019-03-29T03:25:12.898Z,10.93
2019-03-29T03:28:22.114Z,13.90
2019-03-29T03:31:29.426Z,14.73
2019-03-29T03:34:35.286Z,14.73
2019-03-29T03:37:41.025Z,12.20
2019-03-29T03:40:46.766Z,13.23
2019-03-29T03:43:52.515Z,12.57
2019-03-29T03:46:58.235Z,11.97
2019-03-29T03:50:04.009Z,13.60
2019-03-29T03:53:10.281Z,11.83
2019-03-29T03:56:17.922Z,17.70
2019-03-29T03:59:25.728Z,15.20
2019-03-29T04:02:31.600Z,14.30
2019-03-29T04:05:37.367Z,14.77
2019-03-29T04:08:43.045Z,13.07
2019-03-29T04:11:48.701Z,13.90
2019-03-29T04:14:54.407Z,13.00
2019-03-29T04:18:00.103Z,11.67
2019-03-29T04:21:05.830Z,14.43
2019-03-29T04:24:11.592Z,13.83
2019-03-29T04:27:17.339Z,12.60
2019-03-29T04:30:23.049Z,13.67
2019-03-29T04:33:28.774Z,13.53
2019-03-29T04:36:34.607Z,14.33
2019-03-29T04:39:40.321Z,14.83
2019-03-29T04:42:46.124Z,15.10
2019-03-29T04:45:51.941Z,12.13
2019-03-29T04:48:57.731Z,14.30
2019-03-29T04:52:03.470Z,13.53
2019-03-29T04:55:09.577Z,12.43
2019-03-29T04:58:16.213Z,13.77
2019-03-29T05:01:22.075Z,12.67
2019-03-29T05:04:27.798Z,10.60
2019-03-29T05:07:36.798Z,11.87
2019-03-29T05:10:40.994Z,11.53
2019-03-29T05:13:46.784Z,11.50
2019-03-29T05:16:52.456Z,9.77
2019-03-29T05:19:58.232Z,13.97
2019-03-29T05:23:03.935Z,10.50
2019-03-29T05:26:09.709Z,11.43
2019-03-29T05:29:15.494Z,12.40
2019-03-29T05:32:21.266Z,10.93
2019-03-29T05:35:27.025Z,10.37
2019-03-29T05:38:32.837Z,11.40
2019-03-29T05:41:39.658Z,10.37
2019-03-29T05:44:45.391Z,9.10
2019-03-29T05:47:51.094Z,8.67
2019-03-29T05:50:56.859Z,11.37
2019-03-29T05:54:02.680Z,11.03
2019-03-29T05:57:08.347Z,9.93
2019-03-29T06:00:16.732Z,11.10
2019-03-29T06:03:22.440Z,9.97
2019-03-29T06:06:28.195Z,13.47
2019-03-29T06:09:35.103Z,12.60
2019-03-29T06:12:40.959Z,10.77
2019-03-29T06:15:46.660Z,10.10
2019-03-29T06:18:52.364Z,16.00
2019-03-29T06:21:58.145Z,10.87
2019-03-29T06:25:03.845Z,10.87
2019-03-29T06:28:09.583Z,14.67
2019-03-29T06:31:15.384Z,12.70
2019-03-29T06:34:21.048Z,13.87
2019-03-29T06:37:27.974Z,16.70
2019-03-29T06:40:33.932Z,18.30
2019-03-29T06:43:39.661Z,20.50
2019-03-29T06:46:45.371Z,26.07
2019-03-29T06:49:51.093Z,19.33
2019-03-29T06:52:56.820Z,17.17
2019-03-29T06:56:02.584Z,19.33
2019-03-29T06:59:08.321Z,22.23
2019-03-29T07:02:14.174Z,17.93
2019-03-29T07:05:19.988Z,22.00
2019-03-29T07:08:25.966Z,22.67
2019-03-29T07:11:32.963Z,25.13
2019-03-29T07:14:38.704Z,23.67
2019-03-29T07:17:44.423Z,17.27
2019-03-29T07:20:50.077Z,16.00
2019-03-29T07:23:55.868Z,18.20
2019-03-29T07:27:01.707Z,20.33
2019-03-29T07:30:11.530Z,15.73
2019-03-29T07:33:17.317Z,12.60
2019-03-29T07:36:23.026Z,13.90
2019-03-29T07:39:28.900Z,14.27
2019-03-29T07:42:34.808Z,14.03
2019-03-29T07:45:40.526Z,11.80
2019-03-29T07:48:46.292Z,13.73
2019-03-29T07:51:52.092Z,16.30
2019-03-29T07:54:57.780Z,13.57
2019-03-29T07:58:03.522Z,12.40
2019-03-29T08:01:09.274Z,14.60
2019-03-29T08:04:15.123Z,12.53
2019-03-29T08:07:27.064Z,12.10
2019-03-29T08:10:31.287Z,11.30
2019-03-29T08:13:35.566Z,13.60
2019-03-29T08:16:41.533Z,10.90
2019-03-29T08:19:47.321Z,11.50
2019-03-29T08:22:54.163Z,9.87
2019-03-29T08:25:59.836Z,12.17
2019-03-29T08:29:05.530Z,10.60
2019-03-29T08:32:11.330Z,12.13
2019-03-29T08:35:17.013Z,10.43
2019-03-29T08:38:22.736Z,10.90
2019-03-29T08:41:28.459Z,11.40
2019-03-29T08:44:34.097Z,9.47
2019-03-29T08:47:39.848Z,11.00
2019-03-29T08:50:46.609Z,10.30
2019-03-29T08:53:52.366Z,8.03
2019-03-29T08:56:57.985Z,5.97
2019-03-29T09:00:03.719Z,4.40
2019-03-29T09:03:09.438Z,5.90
2019-03-29T09:06:15.358Z,6.10
2019-03-29T09:09:21.108Z,3.13
2019-03-29T09:12:26.935Z,7.37
2019-03-29T09:15:34.769Z,3.87
2019-03-29T09:18:40.565Z,3.37
2019-03-29T09:21:46.244Z,4.40
2019-03-29T09:24:52.080Z,3.50
2019-03-29T09:27:57.853Z,4.23
2019-03-29T09:31:03.684Z,5.63
2019-03-29T09:34:09.456Z,4.33
2019-03-29T09:37:15.180Z,4.20
2019-03-29T09:40:21.077Z,4.17
2019-03-29T09:43:27.031Z,3.83
2019-03-29T09:46:32.744Z,4.20
2019-03-29T09:49:38.462Z,5.00
2019-03-29T09:52:44.177Z,5.13
2019-03-29T09:55:53.296Z,4.67
2019-03-29T09:58:57.504Z,4.47
2019-03-29T10:02:03.207Z,11.33
2019-03-29T10:05:09.298Z,4.07
2019-03-29T10:08:15.141Z,4.83
2019-03-29T10:11:22.214Z,3.90
2019-03-29T10:14:27.975Z,5.07
2019-03-29T10:17:33.850Z,4.40
2019-03-29T10:20:39.534Z,5.20
2019-03-29T10:23:45.410Z,4.13
2019-03-29T10:26:51.111Z,4.50
2019-03-29T10:29:56.779Z,4.00
2019-03-29T10:33:02.454Z,4.30
2019-03-29T10:36:08.172Z,4.40
2019-03-29T10:39:14.006Z,4.77
2019-03-29T10:42:19.682Z,3.37
2019-03-29T10:45:25.447Z,4.77
2019-03-29T10:48:31.230Z,3.37
2019-03-29T10:51:36.951Z,4.70
2019-03-29T10:54:42.618Z,4.07
2019-03-29T10:57:48.339Z,3.70
2019-03-29T11:00:54.069Z,4.20
2019-03-29T11:03:59.812Z,3.87
2019-03-29T11:07:05.588Z,4.47
2019-03-29T11:10:15.383Z,5.60
2019-03-29T11:13:21.210Z,3.43
2019-03-29T11:16:26.960Z,5.10
2019-03-29T11:19:32.624Z,3.07
2019-03-29T11:22:38.364Z,4.23
2019-03-29T11:25:44.153Z,3.80
2019-03-29T11:28:49.897Z,4.60
2019-03-29T11:31:55.580Z,3.17
2019-03-29T11:35:01.294Z,3.67
2019-03-29T11:38:07.088Z,7.27
2019-03-29T11:41:12.794Z,3.47
2019-03-29T11:44:18.501Z,6.30
2019-03-29T11:47:24.185Z,4.50
2019-03-29T11:50:29.887Z,3.30
2019-03-29T11:53:35.715Z,4.27
2019-03-29T11:56:41.384Z,3.40
2019-03-29T11:59:47.120Z,3.40
2019-03-29T12:02:52.795Z,3.47
2019-03-29T12:05:58.599Z,3.33
2019-03-29T12:09:06.052Z,3.47
2019-03-29T12:12:12.276Z,3.50
2019-03-29T12:15:19.098Z,3.57
2019-03-29T12:18:24.850Z,3.93
2019-03-29T12:21:30.541Z,3.70
2019-03-29T12:24:36.274Z,3.20
2019-03-29T12:27:42.100Z,4.27
2019-03-29T12:30:47.862Z,5.53
2019-03-29T12:33:53.692Z,4.67
2019-03-29T12:36:59.367Z,3.70
2019-03-29T12:40:05.191Z,3.47
2019-03-29T12:43:12.741Z,4.47
2019-03-29T12:46:18.621Z,6.40
2019-03-29T12:49:24.403Z,3.67
2019-03-29T12:52:30.139Z,3.90
2019-03-29T12:55:35.918Z,4.00
2019-03-29T12:58:41.578Z,4.23
2019-03-29T13:01:47.390Z,3.57
2019-03-29T13:04:53.136Z,4.13
2019-03-29T13:07:58.919Z,3.77
2019-03-29T13:11:04.680Z,5.67
2019-03-29T13:14:12.576Z,4.23
2019-03-29T13:17:18.661Z,3.83
2019-03-29T13:20:24.570Z,3.73
2019-03-29T13:23:30.406Z,3.80
2019-03-29T13:26:36.281Z,4.57
2019-03-29T13:29:41.954Z,6.80
2019-03-29T13:32:47.766Z,5.00
2019-03-29T13:35:53.729Z,3.73
2019-03-29T13:38:59.581Z,3.70
2019-03-29T13:42:05.280Z,5.53
2019-03-29T13:45:12.154Z,11.03
2019-03-29T13:48:17.885Z,4.20
2019-03-29T13:51:23.571Z,4.17
2019-03-29T13:54:29.416Z,5.53
2019-03-29T13:57:35.323Z,4.27
2019-03-29T14:00:41.075Z,4.67
2019-03-29T14:03:46.808Z,5.10
2019-03-29T14:06:52.504Z,5.47
2019-03-29T14:09:58.257Z,4.77
2019-03-29T14:13:04.048Z,4.63
2019-03-29T14:16:09.714Z,5.90
2019-03-29T14:19:15.478Z,5.30
2019-03-29T14:22:21.386Z,5.63
2019-03-29T14:25:27.095Z,5.93
2019-03-29T14:28:32.882Z,4.43
2019-03-29T14:31:38.658Z,4.90
2019-03-29T14:34:44.406Z,4.53
2019-03-29T14:37:50.116Z,4.90
2019-03-29T14:40:55.912Z,4.37
2019-03-29T14:44:01.555Z,4.63
2019-03-29T14:47:07.335Z,5.10
2019-03-29T14:50:13.297Z,6.47
2019-03-29T14:53:19.134Z,8.23
2019-03-29T14:56:24.869Z,6.17
2019-03-29T14:59:30.573Z,4.53
2019-03-29T15:02:36.375Z,5.43
2019-03-29T15:05:42.369Z,5.47
2019-03-29T15:08:49.871Z,5.63
2019-03-29T15:11:55.782Z,4.93
2019-03-29T15:15:06.327Z,6.30
2019-03-29T15:18:09.954Z,6.20
2019-03-29T15:21:15.713Z,8.37
2019-03-29T15:24:21.454Z,11.90
2019-03-29T15:27:27.221Z,6.37
2019-03-29T15:30:33.094Z,7.10
2019-03-29T15:33:38.764Z,5.27
2019-03-29T15:36:44.518Z,7.73
2019-03-29T15:39:50.403Z,5.83
2019-03-29T15:42:56.210Z,8.07
2019-03-29T15:46:01.950Z,5.57
2019-03-29T15:49:07.730Z,6.10
2019-03-29T15:52:14.723Z,5.27
2019-03-29T15:55:20.532Z,6.77
2019-03-29T15:58:26.294Z,7.20
2019-03-29T16:01:39.055Z,8.00
2019-03-29T16:04:45.999Z,7.00
2019-03-29T16:07:51.806Z,6.07
2019-03-29T16:10:57.534Z,6.57
2019-03-29T16:14:03.355Z,6.33
2019-03-29T16:17:09.020Z,6.10
2019-03-29T16:20:14.693Z,6.47
2019-03-29T16:23:20.341Z,5.47
2019-03-29T16:26:26.072Z,5.17
2019-03-29T16:29:31.824Z,6.13
2019-03-29T16:32:37.553Z,5.13
2019-03-29T16:35:43.231Z,8.77
2019-03-29T16:38:48.957Z,4.70
2019-03-29T16:41:54.728Z,4.00
2019-03-29T16:45:00.659Z,6.30
2019-03-29T16:48:06.988Z,4.93
2019-03-29T16:51:12.864Z,5.17
2019-03-29T16:54:18.580Z,5.23
2019-03-29T16:57:24.351Z,4.97
2019-03-29T17:00:30.027Z,5.67
2019-03-29T17:03:35.763Z,6.00
2019-03-29T17:06:41.429Z,4.20
2019-03-29T17:09:47.082Z,4.70
2019-03-29T17:12:52.713Z,5.60
2019-03-29T17:16:02.073Z,3.93
2019-03-29T17:19:05.817Z,5.30
2019-03-29T17:22:11.512Z,7.23
2019-03-29T17:25:17.184Z,4.40
2019-03-29T17:28:23.010Z,4.20
2019-03-29T17:31:29.686Z,4.13
2019-03-29T17:34:36.033Z,4.13
2019-03-29T17:37:41.695Z,4.07
2019-03-29T17:40:47.414Z,3.80
2019-03-29T17:43:54.101Z,6.67
2019-03-29T17:47:00.971Z,3.40
2019-03-29T17:50:07.137Z,3.53
2019-03-29T17:53:14.553Z,3.53
2019-03-29T17:56:20.301Z,5.13
2019-03-29T17:59:26.044Z,3.43
2019-03-29T18:02:31.878Z,4.57
2019-03-29T18:05:37.641Z,4.13
2019-03-29T18:08:43.368Z,3.70
2019-03-29T18:11:49.067Z,5.07
2019-03-29T18:14:54.942Z,4.17
2019-03-29T18:18:00.814Z,3.53
2019-03-29T18:21:06.588Z,5.33
2019-03-29T18:24:12.414Z,5.30
2019-03-29T18:27:18.068Z,4.77
2019-03-29T18:30:38.094Z,3.43
2019-03-29T18:33:44.262Z,4.20
2019-03-29T18:36:50.653Z,5.27
2019-03-29T18:39:56.782Z,7.27
2019-03-29T18:43:02.460Z,8.17
2019-03-29T18:46:08.161Z,7.30
2019-03-29T18:49:13.934Z,6.90
2019-03-29T18:52:20.088Z,10.43
2019-03-29T18:55:26.251Z,8.23
2019-03-29T18:58:31.982Z,8.07
2019-03-29T19:01:37.712Z,6.97
2019-03-29T19:04:43.483Z,5.57
2019-03-29T19:07:49.293Z,5.43
2019-03-29T19:10:55.004Z,8.43
2019-03-29T19:14:00.795Z,5.97
2019-03-29T19:17:06.483Z,17.93
2019-03-29T19:20:26.213Z,7.83
2019-03-29T19:23:19.724Z,5.30
2019-03-29T19:26:25.458Z,5.67
2019-03-29T19:29:31.165Z,7.70
2019-03-29T19:32:36.949Z,7.07
2019-03-29T19:35:42.700Z,9.43
2019-03-29T19:38:48.558Z,14.63
2019-03-29T19:41:55.265Z,50.67
2019-03-29T19:45:01.026Z,17.53
2019-03-29T19:48:06.916Z,19.63
2019-03-29T19:51:12.611Z,41.07
2019-03-29T19:54:18.292Z,11.77
2019-03-29T19:57:24.013Z,19.10
2019-03-29T20:00:40.882Z,16.53
2019-03-29T20:03:46.556Z,15.90
2019-03-29T20:06:52.405Z,13.60
2019-03-29T20:09:58.094Z,15.37
2019-03-29T20:13:03.948Z,15.73
2019-03-29T20:16:09.669Z,19.10
2019-03-29T20:19:15.415Z,19.40
2019-03-29T20:22:21.240Z,13.03
2019-03-29T20:25:27.585Z,12.20
2019-03-29T20:28:33.474Z,14.53
2019-03-29T20:31:39.196Z,10.63
2019-03-29T20:34:44.898Z,12.13
2019-03-29T20:37:50.601Z,9.83
2019-03-29T20:40:56.298Z,13.03
2019-03-29T20:44:02.061Z,10.97
2019-03-29T20:47:07.747Z,8.43
2019-03-29T20:50:15.183Z,7.67
2019-03-29T20:53:20.882Z,9.83
2019-03-29T20:56:28.881Z,13.40
2019-03-29T20:59:34.063Z,13.87
2019-03-29T21:02:39.786Z,9.73
2019-03-29T21:05:45.544Z,8.70
2019-03-29T21:08:51.181Z,6.67
2019-03-29T21:11:56.902Z,6.60
2019-03-29T21:15:02.627Z,10.20
2019-03-29T21:18:08.463Z,9.87
2019-03-29T21:21:14.155Z,10.93
2019-03-29T21:24:19.934Z,11.77
2019-03-29T21:27:25.716Z,11.63
2019-03-29T21:30:31.465Z,9.47
2019-03-29T21:33:40.486Z,6.47
2019-03-29T21:36:45.630Z,8.97
2019-03-29T21:39:51.618Z,6.73
2019-03-29T21:42:57.605Z,7.43
2019-03-29T21:46:03.307Z,6.67
2019-03-29T21:49:09.089Z,11.47
2019-03-29T21:52:14.878Z,7.20
2019-03-29T21:55:20.593Z,7.07
2019-03-29T21:58:28.819Z,9.13
2019-03-29T22:01:34.500Z,6.67
2019-03-29T22:04:40.325Z,9.40
2019-03-29T22:07:46.067Z,11.17
2019-03-29T22:10:51.804Z,10.27
2019-03-29T22:13:57.496Z,12.87
2019-03-29T22:17:04.266Z,11.83
2019-03-29T22:20:10.979Z,11.80
2019-03-29T22:23:16.885Z,9.67
2019-03-29T22:26:22.611Z,12.87
2019-03-29T22:29:28.351Z,12.03
2019-03-29T22:32:34.068Z,8.17
2019-03-29T22:35:39.836Z,7.20
2019-03-29T22:38:46.614Z,7.23
2019-03-29T22:41:52.330Z,8.90
2019-03-29T22:44:58.062Z,6.60
2019-03-29T22:48:03.955Z,6.80
2019-03-29T22:51:09.626Z,8.70
2019-03-29T22:54:15.381Z,7.43
2019-03-29T22:57:21.076Z,9.37
2019-03-29T23:00:38.467Z,8.00
2019-03-29T23:03:45.784Z,7.73
2019-03-29T23:06:51.515Z,8.60
2019-03-29T23:09:57.183Z,7.97
2019-03-29T23:13:02.948Z,7.43
2019-03-29T23:16:08.813Z,7.97
2019-03-29T23:19:14.511Z,7.73
2019-03-29T23:22:20.228Z,8.93
2019-03-29T23:25:26.043Z,9.60
2019-03-29T23:28:31.711Z,9.40
2019-03-29T23:31:37.460Z,9.57
2019-03-29T23:34:43.215Z,10.30
2019-03-29T23:37:48.988Z,10.47
2019-03-29T23:40:54.688Z,12.67
2019-03-29T23:44:00.393Z,12.23
2019-03-29T23:47:06.079Z,14.53
2019-03-29T23:50:11.787Z,15.47
2019-03-29T23:53:17.430Z,10.57
2019-03-29T23:56:23.165Z,9.57
2019-03-29T23:59:28.840Z,10.83
